Time;durP1;ratioP1;P1;durP2;ratioP2;P2;SDS_P1;SDS_P2;PMS_P1;PMS_P2;Temp;Humidity;BMP_temperature;BMP_pressure;BME280_temperature;BME280_humidity;BME280_pressure;Samples;Min_cycle;Max_cycle;Signal;HPM_P1;HPM_P2
2021/01/04 00:00:07;;;;;;;22.34;12.64;;;;;;;4.21;71.85;99988.91;316315;110;2034937;-74
2021/01/04 00:01:34;;;;;;;21.14;12.31;;;;;;;4.21;71.64;99992.45;359714;112;1962949;-72
2021/01/04 00:02:58;;;;;;;22.95;13.07;;;;;;;4.18;71.80;99982.91;360406;112;1962087;-73
2021/01/04 00:04:29;;;;;;;26.92;13.07;;;;;;;4.22;71.60;99975.39;358767;112;1963899;-73
2021/01/04 00:06:00;;;;;;;24.24;13.74;;;;;;;4.23;71.38;99982.41;360379;112;1962099;-74
2021/01/04 00:07:16;;;;;;;25.17;13.22;;;;;;;4.18;71.56;99988.25;359351;112;1962994;-74
2021/01/04 00:08:43;;;;;;;24.99;12.79;;;;;;;4.22;71.69;99987.94;359128;110;1961917;-74
2021/01/04 00:10:07;;;;;;;25.33;13.65;;;;;;;4.21;71.75;99992.45;359545;112;1962016;-73
2021/01/04 00:11:25;;;;;;;24.64;12.63;;;;;;;4.18;71.96;99988.25;360237;110;1961962;-74
2021/01/04 00:12:35;;;;;;;26.18;13.69;;;;;;;4.26;71.57;99990.14;359058;112;1962004;-74
2021/01/04 00:14:15;;;;;;;24.46;13.50;;;;;;;4.28;71.61;99997.98;305332;109;2142554;-74
2021/01/04 00:15:31;;;;;;;22.07;12.46;;;;;;;4.26;71.55;99989.28;360368;110;1961979;-74
2021/01/04 00:16:46;;;;;;;25.98;13.40;;;;;;;4.23;71.85;99986.92;359096;110;1962029;-74
2021/01/04 00:18:03;;;;;;;24.69;13.54;;;;;;;4.25;71.86;99979.59;359672;110;1961929;-73
2021/01/04 00:19:13;;;;;;;22.92;12.74;;;;;;;4.27;71.83;99980.28;327858;112;2526058;-73
2021/01/04 00:20:33;;;;;;;24.77;12.71;;;;;;;4.27;71.74;99973.09;359212;112;1962923;-73
2021/01/04 00:22:10;;;;;;;23.94;13.65;;;;;;;4.28;71.84;99980.10;308414;109;2118717;-73
2021/01/04 00:23:36;;;;;;;25.97;13.69;;;;;;;4.28;71.79;99984.62;359376;112;1961881;-74
2021/01/04 00:24:50;;;;;;;25.04;14.03;;;;;;;4.27;71.81;99974.93;359141;112;1963932;-73
2021/01/04 00:25:59;;;;;;;23.42;13.13;;;;;;;4.27;71.83;99982.95;360368;112;1961925;-72
2021/01/04 00:27:18;;;;;;;24.50;13.57;;;;;;;4.29;71.85;99986.31;358525;112;1962967;-74
2021/01/04 00:28:27;;;;;;;25.23;13.92;;;;;;;4.29;71.80;99984.47;311800;117;2478044;-73
2021/01/04 00:29:33;;;;;;;23.25;13.20;;;;;;;4.31;71.82;99982.48;323933;111;2903002;-74
2021/01/04 00:31:00;;;;;;;25.71;13.72;;;;;;;4.35;71.51;99983.00;353468;112;1961960;-73
2021/01/04 00:32:09;;;;;;;25.37;12.83;;;;;;;4.34;71.62;99992.00;355899;112;1962033;-73
2021/01/04 00:33:18;;;;;;;25.69;13.66;;;;;;;4.35;71.67;99997.20;360701;110;1961999;-73
2021/01/04 00:34:28;;;;;;;25.84;15.01;;;;;;;4.34;71.68;100000.02;350767;110;1960845;-73
2021/01/04 00:35:33;;;;;;;26.03;14.65;;;;;;;4.37;71.82;99997.06;341796;112;1961027;-74
2021/01/04 00:36:50;;;;;;;24.08;13.57;;;;;;;4.38;71.76;99996.05;360090;112;1961935;-73
2021/01/04 00:38:14;;;;;;;23.26;13.32;;;;;;;4.38;71.76;99991.53;359971;110;1964006;-74
2021/01/04 00:39:41;;;;;;;26.15;14.02;;;;;;;4.41;71.69;99988.55;360087;112;1961943;-73
2021/01/04 00:41:10;;;;;;;27.07;14.13;;;;;;;4.42;71.55;99986.73;322012;115;1962056;-73
2021/01/04 00:42:36;;;;;;;27.15;14.49;;;;;;;4.40;71.60;99983.37;351180;112;1963968;-74
2021/01/04 00:43:47;;;;;;;28.38;15.46;;;;;;;4.45;71.77;99985.58;356370;113;1962029;-73
2021/01/04 00:45:23;;;;;;;27.39;15.09;;;;;;;4.53;71.39;99985.62;329903;112;1961945;-74
2021/01/04 00:46:35;;;;;;;26.87;13.31;;;;;;;4.55;71.16;99975.57;314415;112;2716998;-73
2021/01/04 00:48:00;;;;;;;28.67;15.24;;;;;;;4.54;71.02;99982.77;355149;112;1962056;-73
2021/01/04 00:49:14;;;;;;;27.48;14.28;;;;;;;4.51;71.19;99975.06;355533;111;1961967;-73
2021/01/04 00:50:28;;;;;;;25.06;14.18;;;;;;;4.56;70.97;99985.30;319323;110;2010354;-73
2021/01/04 00:51:46;;;;;;;23.22;12.83;;;;;;;4.53;70.75;99991.80;358870;112;1962019;-73
2021/01/04 00:52:58;;;;;;;25.83;14.43;;;;;;;4.53;70.86;99991.80;345562;109;1961942;-74
2021/01/04 00:54:05;;;;;;;;;;;;;;;4.52;71.06;99986.59;363378;110;1960941;-71
2021/01/04 00:55:23;;;;;;;25.53;13.59;;;;;;;4.45;71.28;99981.06;305472;109;2132050;-73
2021/01/04 00:56:43;;;;;;;25.74;13.66;;;;;;;4.46;71.44;99995.27;326822;112;1964948;-73
2021/01/04 00:58:16;;;;;;;23.79;13.82;;;;;;;4.51;71.26;99990.28;360631;112;1963915;-74
2021/01/04 00:59:45;;;;;;;22.43;12.93;;;;;;;4.50;71.17;99986.77;351525;112;1961947;-73
2021/01/04 01:00:59;;;;;;;21.95;12.54;;;;;;;4.55;71.21;99988.95;334857;111;2310005;-73
2021/01/04 01:02:10;;;;;;;25.17;12.51;;;;;;;4.55;70.97;99984.46;356850;111;1961947;-73
2021/01/04 01:03:31;;;;;;;24.11;13.17;;;;;;;4.57;70.78;99995.82;335159;111;1962969;-73
2021/01/04 01:04:52;;;;;;;22.21;13.07;;;;;;;4.54;70.94;99995.31;359205;109;1962001;-72
2021/01/04 01:06:19;;;;;;;22.13;11.92;;;;;;;4.55;70.91;99996.98;359788;110;1962946;-73
2021/01/04 01:07:54;;;;;;;24.01;12.59;;;;;;;4.56;70.88;99998.67;306519;112;2131757;-73
2021/01/04 01:09:00;;;;;;;23.21;12.22;;;;;;;4.57;70.73;99997.66;337390;112;1961939;-73
2021/01/04 01:10:10;;;;;;;24.34;12.89;;;;;;;4.57;70.70;99994.98;354450;112;1962028;-73
2021/01/04 01:11:19;;;;;;;25.27;13.36;;;;;;;4.56;70.63;100001.34;352992;112;1960997;-73
2021/01/04 01:12:46;;;;;;;23.28;13.23;;;;;;;4.54;70.79;99993.47;340673;111;1962022;-73
2021/01/04 01:14:07;;;;;;;24.04;13.29;;;;;;;4.55;70.72;99989.81;355372;111;1965054;-73
2021/01/04 01:15:17;;;;;;;22.69;12.99;;;;;;;4.53;70.78;99986.45;355418;113;1961949;-72
2021/01/04 01:16:28;;;;;;;22.20;12.27;;;;;;;4.55;70.68;99983.59;356244;113;1961991;-73
2021/01/04 01:17:40;;;;;;;21.58;11.51;;;;;;;4.50;70.72;99975.21;305450;111;2105175;-73
2021/01/04 01:18:47;;;;;;;;;;;;;;;4.49;70.79;99971.70;360317;111;1962003;-73
2021/01/04 01:19:57;;;;;;;21.02;11.64;;;;;;;4.44;71.10;99979.36;355996;113;1961973;-74
2021/01/04 01:21:07;;;;;;;21.91;11.36;;;;;;;4.50;71.05;99983.23;308458;113;2835045;-72
2021/01/04 01:22:25;;;;;;;20.72;11.92;;;;;;;4.51;70.87;99977.73;355563;113;1961944;-73
2021/01/04 01:23:31;;;;;;;19.73;11.01;;;;;;;4.54;70.68;99976.58;355161;111;1960979;-74
2021/01/04 01:24:37;;;;;;;22.22;12.11;;;;;;;4.48;70.84;99967.36;356090;113;1965025;-73
2021/01/04 01:25:46;;;;;;;25.73;12.59;;;;;;;4.49;70.76;99965.52;316903;111;2687889;-73
2021/01/04 01:27:05;;;;;;;20.58;10.93;;;;;;;4.46;70.91;99964.00;330362;112;2376905;-73
2021/01/04 01:28:27;;;;;;;19.42;11.52;;;;;;;4.48;70.82;99964.69;360821;110;1961964;-73
2021/01/04 01:29:45;;;;;;;21.69;12.79;;;;;;;4.45;70.74;99970.36;305141;112;2107695;-73
2021/01/04 01:31:18;;;;;;;24.54;12.18;;;;;;;4.45;70.86;99962.34;355467;112;1961937;-73
2021/01/04 01:32:39;;;;;;;23.37;12.16;;;;;;;4.40;70.97;99959.30;361252;110;1962013;-73
2021/01/04 01:34:23;;;;;;;21.58;11.54;;;;;;;4.44;70.85;99954.45;360207;110;1961980;-73
2021/01/04 01:35:36;;;;;;;22.31;11.29;;;;;;;4.42;71.06;99957.31;355056;112;1963028;-73
2021/01/04 01:36:49;;;;;;;23.17;11.99;;;;;;;4.43;70.96;99950.95;310453;113;2045375;-73
2021/01/04 01:38:31;;;;;;;24.44;12.08;;;;;;;4.41;71.10;99961.80;354648;111;1963002;-73
2021/01/04 01:39:57;;;;;;;20.16;11.31;;;;;;;4.43;71.02;99958.14;331060;111;1961975;-73
2021/01/04 01:41:18;;;;;;;23.08;12.24;;;;;;;4.41;71.19;99966.31;355413;112;1964940;-74
2021/01/04 01:42:30;;;;;;;22.66;13.32;;;;;;;4.41;71.20;99963.63;354642;112;1963996;-73
2021/01/04 01:43:44;;;;;;;25.17;12.51;;;;;;;4.43;71.22;99968.84;355952;112;1963008;-74
2021/01/04 01:44:56;;;;;;;24.12;12.80;;;;;;;4.44;71.15;99970.50;355169;112;1962066;-73
2021/01/04 01:46:31;;;;;;;23.78;13.68;;;;;;;4.47;71.13;99970.19;329386;112;2235031;-73
2021/01/04 01:47:49;;;;;;;25.13;12.64;;;;;;;4.46;71.10;99974.70;334870;112;1961917;-72
2021/01/04 01:49:07;;;;;;;23.13;12.31;;;;;;;4.42;71.34;99970.69;353926;112;1961999;-73
2021/01/04 01:50:24;;;;;;;21.84;12.33;;;;;;;4.43;71.34;99974.19;355708;112;1962009;-73
2021/01/04 01:51:55;;;;;;;23.62;13.11;;;;;;;4.47;71.33;99984.39;326591;110;2908058;-73
2021/01/04 01:53:07;;;;;;;24.56;13.33;;;;;;;4.54;71.13;99993.47;335807;112;1963761;-73
2021/01/04 01:54:26;;;;;;;;;;;;;;;4.56;70.89;99980.78;358272;112;1960931;-73
2021/01/04 01:55:57;;;;;;;21.93;11.19;;;;;;;4.55;70.98;99976.44;354078;112;1962951;-73
2021/01/04 01:57:07;;;;;;;23.88;12.24;;;;;;;4.54;71.05;99971.23;359466;110;1961978;-72
2021/01/04 01:58:42;;;;;;;20.10;12.04;;;;;;;4.55;71.02;99987.14;353444;112;1964985;-73
2021/01/04 01:59:54;;;;;;;21.72;11.51;;;;;;;4.58;70.86;99977.95;359314;110;1963013;-72
2021/01/04 02:01:04;;;;;;;;;;;;;;;4.62;70.52;99969.42;305618;110;2161592;-72
2021/01/04 02:02:24;;;;;;;19.28;11.31;;;;;;;4.57;70.79;99960.20;304875;110;2163182;-73
2021/01/04 02:03:52;;;;;;;19.48;10.72;;;;;;;4.52;70.93;99955.33;360377;110;1961877;-73
2021/01/04 02:05:11;;;;;;;23.00;12.20;;;;;;;4.48;71.24;99955.83;326850;110;2898985;-72
2021/01/04 02:06:47;;;;;;;21.86;12.80;;;;;;;4.58;71.06;99967.25;361001;110;1962064;-73
2021/01/04 02:08:06;;;;;;;20.79;10.33;;;;;;;4.62;70.81;99980.13;345029;110;2915954;-72
2021/01/04 02:09:16;;;;;;;19.79;10.46;;;;;;;4.66;70.60;99971.77;359226;110;1961959;-72
2021/01/04 02:10:33;;;;;;;18.10;10.69;;;;;;;4.67;70.14;99963.60;362182;110;1962954;-73
2021/01/04 02:11:54;;;;;;;19.61;11.34;;;;;;;4.63;70.34;99956.88;308186;110;2082588;-73
2021/01/04 02:13:24;;;;;;;21.89;11.46;;;;;;;4.55;70.63;99963.06;360687;110;1962058;-73
2021/01/04 02:14:41;;;;;;;22.09;12.47;;;;;;;4.55;70.91;99963.06;352322;112;1962060;-73
2021/01/04 02:15:54;;;;;;;20.87;12.17;;;;;;;4.55;70.89;99968.41;335945;112;2943942;-73
2021/01/04 02:17:16;;;;;;;20.99;10.44;;;;;;;4.55;71.00;99963.06;353746;113;1961998;-73
2021/01/04 02:18:44;;;;;;;21.19;12.24;;;;;;;4.61;70.69;99974.95;354761;111;1963019;-72
2021/01/04 02:19:57;;;;;;;19.95;11.10;;;;;;;4.61;70.57;99961.58;355078;112;1961921;-73
2021/01/04 02:21:36;;;;;;;20.24;11.71;;;;;;;4.59;70.65;99969.75;353488;112;1962013;-73
2021/01/04 02:22:46;;;;;;;20.03;10.20;;;;;;;4.57;70.82;99977.09;297184;114;2161891;-73
2021/01/04 02:24:12;;;;;;;19.31;10.72;;;;;;;4.61;70.71;99966.93;351678;112;1961918;-73
2021/01/04 02:25:18;;;;;;;17.28;10.12;;;;;;;4.62;70.64;99969.42;355759;111;1961872;-73
2021/01/04 02:26:26;;;;;;;19.82;10.67;;;;;;;4.60;70.82;99970.58;354514;112;1961974;-73
2021/01/04 02:27:39;;;;;;;16.98;10.53;;;;;;;4.57;70.95;99968.23;328684;111;2461038;-73
2021/01/04 02:28:50;;;;;;;16.13;9.80;;;;;;;4.60;70.88;99974.12;355134;112;1963958;-74
2021/01/04 02:29:57;;;;;;;18.63;10.99;;;;;;;4.63;70.83;99976.48;321643;112;2562978;-73
2021/01/04 02:31:02;;;;;;;17.63;9.30;;;;;;;4.67;70.59;99976.98;353214;112;1961918;-73
2021/01/04 02:32:10;;;;;;;19.17;11.13;;;;;;;4.72;70.43;99963.13;358052;112;1963922;-75
2021/01/04 02:33:18;;;;;;;16.47;9.87;;;;;;;4.70;70.46;99971.30;352562;112;1961934;-72
2021/01/04 02:34:27;;;;;;;19.22;11.29;;;;;;;4.68;70.49;99977.81;355073;111;1964001;-73
2021/01/04 02:35:35;;;;;;;17.29;9.97;;;;;;;4.66;70.69;99977.99;360426;110;1961960;-73
2021/01/04 02:36:45;;;;;;;17.84;10.23;;;;;;;4.69;70.61;99969.64;359762;112;1961987;-73
2021/01/04 02:37:53;;;;;;;17.51;9.57;;;;;;;4.62;70.74;99980.13;302997;109;2156836;-73
2021/01/04 02:39:17;;;;;;;19.06;10.12;;;;;;;4.66;70.76;99969.97;359590;109;1964063;-73
2021/01/04 02:40:24;;;;;;;15.96;9.24;;;;;;;4.65;70.69;99967.44;359212;112;1961952;-73
2021/01/04 02:41:43;;;;;;;17.76;9.90;;;;;;;4.67;70.71;99970.80;316680;109;2742984;-73
2021/01/04 02:42:50;;;;;;;19.39;10.11;;;;;;;4.63;70.74;99963.09;359723;109;1962942;-72
2021/01/04 02:43:55;;;;;;;17.80;9.29;;;;;;;4.61;70.85;99967.77;336891;110;1961954;-73
2021/01/04 02:45:21;;;;;;;17.78;9.48;;;;;;;4.58;71.01;99973.44;354389;110;1963795;-73
2021/01/04 02:46:27;;;;;;;16.09;8.64;;;;;;;4.57;71.13;99977.09;358774;112;1961948;-73
2021/01/04 02:47:59;;;;;;;18.26;10.01;;;;;;;4.62;70.84;99977.45;357835;111;1962012;-74
2021/01/04 02:49:17;;;;;;;16.97;9.74;;;;;;;4.62;70.82;99980.13;314581;112;2042585;-73
2021/01/04 02:50:40;;;;;;;19.28;10.38;;;;;;;4.61;70.85;99974.95;325702;112;2574007;-73
2021/01/04 02:51:49;;;;;;;20.22;10.50;;;;;;;4.60;71.00;99976.80;352659;112;1961924;-72
2021/01/04 02:53:17;;;;;;;16.47;9.17;;;;;;;4.60;71.16;99987.50;301599;110;2169123;-73
2021/01/04 02:54:29;;;;;;;17.04;9.74;;;;;;;4.59;71.14;99980.45;360807;110;1960759;-73
2021/01/04 02:55:53;;;;;;;17.08;9.24;;;;;;;4.62;71.09;99972.10;352511;111;1963931;-73
2021/01/04 02:57:20;;;;;;;16.34;9.37;;;;;;;4.66;70.96;99974.45;301260;110;2180616;-73
2021/01/04 02:58:30;;;;;;;16.54;9.54;;;;;;;4.68;70.83;99985.84;362840;110;1961975;-73
2021/01/04 02:59:51;;;;;;;16.17;9.04;;;;;;;4.65;70.81;99972.78;361791;110;1961903;-73
2021/01/04 03:01:06;;;;;;;15.72;9.29;;;;;;;4.67;70.92;99981.50;353433;112;1960956;-73
2021/01/04 03:02:16;;;;;;;15.46;9.04;;;;;;;4.66;70.84;99975.31;358428;112;1962005;-73
2021/01/04 03:03:25;;;;;;;16.42;8.76;;;;;;;4.60;71.12;99968.77;356451;112;1961961;-73
2021/01/04 03:04:33;;;;;;;15.67;9.24;;;;;;;4.62;71.10;99963.24;361015;110;1961976;-73
2021/01/04 03:05:39;;;;;;;14.91;8.60;;;;;;;4.60;71.01;99975.94;342887;112;1962022;-73
2021/01/04 03:07:00;;;;;;;14.53;8.54;;;;;;;4.66;70.85;99977.13;356603;110;1962000;-74
2021/01/04 03:08:06;;;;;;;14.36;8.88;;;;;;;4.62;70.96;99982.80;351312;114;1965411;-73
2021/01/04 03:09:13;;;;;;;18.03;9.77;;;;;;;4.60;71.08;99983.96;356250;112;1961997;-73
2021/01/04 03:10:26;;;;;;;16.12;8.56;;;;;;;4.60;71.14;99984.83;358116;112;1962047;-74
2021/01/04 03:11:32;;;;;;;16.58;9.68;;;;;;;4.62;71.10;99974.78;357645;112;1962026;-73
2021/01/04 03:12:37;;;;;;;16.39;8.94;;;;;;;4.64;71.06;99977.30;336049;110;2314038;-73
2021/01/04 03:13:53;;;;;;;16.21;9.67;;;;;;;4.67;70.93;99976.98;349663;112;1962041;-74
2021/01/04 03:15:05;;;;;;;17.10;9.29;;;;;;;4.62;71.09;99977.45;357611;112;1963967;-72
2021/01/04 03:16:41;;;;;;;16.23;9.17;;;;;;;4.62;71.19;99980.13;346944;112;1962905;-72
2021/01/04 03:18:03;;;;;;;16.51;8.64;;;;;;;4.63;71.05;99971.13;322165;111;1963952;-73
2021/01/04 03:19:12;;;;;;;17.06;9.19;;;;;;;4.56;71.28;99972.75;355044;113;1962013;-73
2021/01/04 03:20:23;;;;;;;17.66;9.37;;;;;;;4.51;71.56;99969.72;355113;111;1962002;-73
2021/01/04 03:21:29;;;;;;;16.62;9.21;;;;;;;4.51;71.71;99967.04;355536;113;1961947;-73
2021/01/04 03:22:49;;;;;;;15.55;8.83;;;;;;;4.54;71.74;99973.91;354892;111;1961943;-73
2021/01/04 03:23:56;;;;;;;17.11;9.28;;;;;;;4.55;71.81;99973.77;360902;107;1961962;-72
2021/01/04 03:25:02;;;;;;;15.33;8.92;;;;;;;4.51;72.34;99976.91;321965;113;1962009;-73
2021/01/04 03:26:12;;;;;;;15.48;8.64;;;;;;;4.52;72.44;99970.55;352591;113;1961987;-71
2021/01/04 03:27:21;;;;;;;17.08;8.19;;;;;;;4.53;72.30;99977.59;353112;113;1963959;-72
2021/01/04 03:28:30;;;;;;;14.01;7.96;;;;;;;4.55;72.14;99968.41;336313;113;1963886;-73
2021/01/04 03:29:36;;;;;;;14.97;8.49;;;;;;;4.58;72.03;99972.61;307758;113;2803916;-72
2021/01/04 03:30:42;;;;;;;16.89;9.19;;;;;;;4.59;71.81;99969.75;353619;113;1961995;-72
2021/01/04 03:31:47;;;;;;;16.26;9.31;;;;;;;4.56;71.84;99972.75;353436;115;1961933;-72
2021/01/04 03:32:53;;;;;;;18.24;9.77;;;;;;;4.57;71.85;99965.56;352319;113;1961960;-72
2021/01/04 03:33:59;;;;;;;15.28;8.81;;;;;;;4.52;72.24;99962.52;350695;113;1960839;-73
2021/01/04 03:35:07;;;;;;;17.14;10.39;;;;;;;4.52;72.21;99967.88;353349;113;1960581;-72
2021/01/04 03:36:16;;;;;;;17.75;9.93;;;;;;;4.48;72.56;99966.53;311919;113;2724920;-73
2021/01/04 03:37:21;;;;;;;17.18;10.25;;;;;;;4.50;72.40;99960.02;351598;113;1961968;-73
2021/01/04 03:38:28;;;;;;;16.88;9.47;;;;;;;4.49;72.59;99966.35;352559;113;1962147;-72
2021/01/04 03:39:34;;;;;;;16.54;8.99;;;;;;;4.50;72.47;99959.16;352793;114;1961987;-72
2021/01/04 03:40:40;;;;;;;14.68;8.38;;;;;;;4.46;72.71;99966.67;295995;113;2170975;-72
2021/01/04 03:41:48;;;;;;;15.59;9.33;;;;;;;4.47;72.50;99962.16;346837;114;1962028;-74
2021/01/04 03:42:53;;;;;;;18.04;10.52;;;;;;;4.48;72.35;99956.66;353088;113;1962030;-72
2021/01/04 03:43:59;;;;;;;16.61;9.33;;;;;;;4.49;72.57;99966.35;305398;113;2829008;-72
2021/01/04 03:45:06;;;;;;;15.48;8.39;;;;;;;4.47;72.51;99962.98;348329;113;1962937;-71
2021/01/04 03:46:12;;;;;;;17.96;10.78;;;;;;;4.45;72.63;99961.50;352711;113;1961893;-73
2021/01/04 03:47:18;;;;;;;16.73;9.66;;;;;;;4.43;72.75;99961.65;352533;113;1963937;-71
2021/01/04 03:48:24;;;;;;;16.19;9.16;;;;;;;4.44;72.62;99960.64;316292;113;2638962;-71
2021/01/04 03:49:30;;;;;;;18.01;9.55;;;;;;;4.44;72.51;99952.61;343231;113;1961923;-73
2021/01/04 03:50:36;;;;;;;16.71;9.62;;;;;;;4.40;72.87;99951.27;353531;113;1962042;-70
2021/01/04 03:51:53;;;;;;;18.23;11.02;;;;;;;4.39;72.86;99946.90;353914;114;1962010;-71
2021/01/04 03:52:59;;;;;;;17.36;10.53;;;;;;;4.38;72.83;99943.39;300235;113;2127496;-72
2021/01/04 03:54:04;;;;;;;16.06;9.47;;;;;;;4.35;73.16;99948.23;331917;114;1960968;-72
2021/01/04 03:55:11;;;;;;;16.95;10.69;;;;;;;4.35;73.26;99948.23;352935;113;1961997;-73
2021/01/04 03:56:31;;;;;;;17.38;9.72;;;;;;;4.36;73.25;99957.92;352150;115;1961987;-71
2021/01/04 03:57:37;;;;;;;18.34;10.48;;;;;;;4.37;73.33;99956.94;358387;110;1964028;-71
2021/01/04 03:58:43;;;;;;;15.23;8.64;;;;;;;4.34;73.64;99947.40;310594;114;2723920;-71
2021/01/04 03:59:49;;;;;;;16.66;9.94;;;;;;;4.36;73.50;99947.22;347810;112;1962936;-71
2021/01/04 04:00:54;;;;;;;17.39;10.34;;;;;;;4.31;73.82;99952.20;353658;111;1961919;-70
2021/01/04 04:02:00;;;;;;;15.82;9.16;;;;;;;4.34;73.87;99959.91;351112;112;1961990;-72
2021/01/04 04:03:06;;;;;;;16.32;9.28;;;;;;;4.34;73.50;99949.21;351635;112;1961978;-71
2021/01/04 04:04:13;;;;;;;17.00;9.34;;;;;;;4.37;73.46;99952.42;295342;114;2236979;-73
2021/01/04 04:05:18;;;;;;;16.14;8.85;;;;;;;4.40;73.20;99953.95;322712;112;1964959;-72
2021/01/04 04:06:27;;;;;;;15.78;8.99;;;;;;;4.41;73.11;99947.59;351701;112;1962012;-72
2021/01/04 04:07:33;;;;;;;18.53;9.72;;;;;;;4.39;73.16;99953.11;291267;111;2222054;-72
2021/01/04 04:08:42;;;;;;;16.25;9.39;;;;;;;4.40;73.07;99951.27;337534;115;1961875;-72
2021/01/04 04:09:47;;;;;;;16.76;9.20;;;;;;;4.39;73.21;99957.59;298660;115;2081295;-73
2021/01/04 04:10:53;;;;;;;16.81;9.51;;;;;;;4.36;73.38;99947.22;341457;116;1964003;-72
2021/01/04 04:11:59;;;;;;;16.23;8.28;;;;;;;4.35;73.45;99950.91;344179;115;1961963;-71
2021/01/04 04:13:04;;;;;;;19.39;9.77;;;;;;;4.37;73.40;99948.92;341137;116;1961832;-73
2021/01/04 04:14:10;;;;;;;16.47;10.05;;;;;;;4.40;73.21;99937.90;341025;117;1962046;-73
2021/01/04 04:15:19;;;;;;;16.21;8.90;;;;;;;4.37;73.35;99952.42;339517;117;1962008;-73
2021/01/04 04:16:27;;;;;;;16.58;9.78;;;;;;;4.35;73.52;99945.56;319970;118;1960956;-71
2021/01/04 04:17:33;;;;;;;17.01;9.38;;;;;;;4.38;73.45;99953.27;353767;112;1961841;-72
2021/01/04 04:18:41;;;;;;;16.81;9.85;;;;;;;4.39;73.41;99953.11;353138;112;1960788;-72
2021/01/04 04:19:48;;;;;;;17.29;9.86;;;;;;;4.39;73.64;99953.11;339293;113;1961936;-72
2021/01/04 04:20:56;;;;;;;17.16;10.39;;;;;;;4.40;73.53;99944.08;353959;112;1965007;-72
2021/01/04 04:22:02;;;;;;;16.49;10.02;;;;;;;4.43;73.42;99945.59;347941;113;1963891;-75
2021/01/04 04:23:09;;;;;;;17.28;10.34;;;;;;;4.44;73.43;99954.45;354091;112;1960929;-72
2021/01/04 04:24:15;;;;;;;15.63;9.09;;;;;;;4.40;73.58;99945.92;349007;114;1961993;-72
2021/01/04 04:25:23;;;;;;;17.71;9.37;;;;;;;4.41;73.62;99948.42;307238;114;2720959;-73
2021/01/04 04:26:31;;;;;;;19.19;9.98;;;;;;;4.43;73.58;99939.42;312550;112;2875937;-73
2021/01/04 04:27:37;;;;;;;15.83;8.55;;;;;;;4.43;73.58;99942.92;352002;113;1961980;-73
2021/01/04 04:28:42;;;;;;;16.34;8.63;;;;;;;4.46;73.40;99944.45;352637;112;1962076;-74
2021/01/04 04:29:47;;;;;;;16.81;8.91;;;;;;;4.44;73.43;99943.75;353652;112;1962947;-73
2021/01/04 04:30:54;;;;;;;15.43;8.75;;;;;;;4.45;73.33;99942.78;352123;112;1961939;-74
2021/01/04 04:32:00;;;;;;;15.01;8.66;;;;;;;4.46;73.30;99944.45;321484;113;2531956;-73
2021/01/04 04:33:06;;;;;;;16.22;9.26;;;;;;;4.46;73.25;99944.45;351639;112;1963931;-73
2021/01/04 04:34:13;;;;;;;18.31;9.94;;;;;;;4.47;73.15;99948.78;352443;112;1962039;-73
2021/01/04 04:35:19;;;;;;;14.97;8.76;;;;;;;4.46;73.24;99953.30;352574;113;1960970;-74
2021/01/04 04:36:30;;;;;;;17.24;9.29;;;;;;;4.45;73.43;99948.13;330906;112;1962936;-73
2021/01/04 04:37:35;;;;;;;19.92;10.04;;;;;;;4.48;73.21;99943.29;329307;112;1962958;-73
2021/01/04 04:38:40;;;;;;;17.05;9.58;;;;;;;4.50;73.11;99948.45;351917;112;1961961;-73
2021/01/04 04:39:46;;;;;;;15.21;8.32;;;;;;;4.46;73.25;99939.92;353113;112;1961975;-74
2021/01/04 04:40:53;;;;;;;17.51;8.99;;;;;;;4.48;73.13;99940.61;353804;112;1963061;-74
2021/01/04 04:42:03;;;;;;;17.96;10.28;;;;;;;4.50;73.00;99932.41;312909;115;1960895;-74
2021/01/04 04:43:13;;;;;;;16.38;8.44;;;;;;;4.47;73.12;99943.44;299710;118;2693978;-73
2021/01/04 04:44:34;;;;;;;15.18;8.28;;;;;;;4.48;73.12;99931.75;312274;116;1964933;-73
2021/01/04 04:45:42;;;;;;;17.65;9.22;;;;;;;4.41;73.42;99931.54;339759;117;1963013;-72
2021/01/04 04:46:54;;;;;;;14.65;8.96;;;;;;;4.44;73.36;99936.56;346631;115;1963022;-73
2021/01/04 04:48:26;;;;;;;15.77;8.53;;;;;;;4.43;73.43;99928.72;346963;115;1961977;-73
2021/01/04 04:49:51;;;;;;;15.11;7.76;;;;;;;4.45;73.41;99932.91;346135;115;1962078;-72
2021/01/04 04:51:13;;;;;;;15.02;8.83;;;;;;;4.45;73.48;99932.08;345544;115;1970005;-73
2021/01/04 04:52:31;;;;;;;14.65;8.06;;;;;;;4.48;73.41;99929.08;335234;115;1961943;-73
2021/01/04 04:53:53;;;;;;;15.02;9.09;;;;;;;4.54;73.12;99926.59;306911;114;2703927;-73
2021/01/04 04:55:38;;;;;;;16.12;8.79;;;;;;;4.54;73.06;99928.42;349333;113;1961969;-72
2021/01/04 04:57:16;;;;;;;17.08;9.27;;;;;;;4.56;73.09;99937.97;353342;112;1970990;-73
2021/01/04 04:58:38;;;;;;;15.94;9.12;;;;;;;4.58;73.05;99946.69;306528;114;2706899;-73
2021/01/04 04:59:56;;;;;;;18.69;9.55;;;;;;;4.62;72.73;99942.67;342495;114;1961949;-73
2021/01/04 05:01:15;;;;;;;18.99;9.89;;;;;;;4.65;72.47;99946.86;310216;116;2653846;-72
2021/01/04 05:02:28;;;;;;;16.86;9.04;;;;;;;4.65;72.46;99935.33;339443;117;1961991;-73
2021/01/04 05:04:07;;;;;;;17.02;9.63;;;;;;;4.61;72.59;99932.98;346123;114;1962098;-74
2021/01/04 05:05:26;;;;;;;17.03;8.38;;;;;;;4.53;73.10;99932.11;316734;115;1961948;-72
2021/01/04 05:06:36;;;;;;;16.68;8.71;;;;;;;4.63;72.54;99944.37;340833;116;1962114;-73
2021/01/04 05:07:45;;;;;;;16.21;8.75;;;;;;;4.65;72.39;99946.03;295852;115;2101636;-72
2021/01/04 05:09:15;;;;;;;15.24;8.09;;;;;;;4.60;72.71;99939.34;311515;113;2659978;-72
2021/01/04 05:10:28;;;;;;;16.14;8.37;;;;;;;4.58;72.90;99940.50;327075;113;1961930;-72
2021/01/04 05:11:48;;;;;;;15.13;7.87;;;;;;;4.60;72.98;99925.10;350670;113;1961893;-72
2021/01/04 05:13:23;;;;;;;15.66;7.91;;;;;;;4.58;72.90;99927.95;356815;111;1960902;-73
2021/01/04 05:14:33;;;;;;;14.77;7.52;;;;;;;4.59;73.06;99932.30;345629;116;1961001;-73
2021/01/04 05:16:02;;;;;;;17.03;8.19;;;;;;;4.69;72.48;99937.53;347650;114;1961894;-72
2021/01/04 05:17:15;;;;;;;15.97;8.52;;;;;;;4.68;72.37;99943.03;347349;114;1961974;-73
2021/01/04 05:18:25;;;;;;;;;;;;;;;4.71;72.23;99934.67;310718;114;2674893;-73
2021/01/04 05:20:08;;;;;;;13.83;7.88;;;;;;;4.67;72.56;99946.72;330500;114;1960931;-73
2021/01/04 05:21:33;;;;;;;12.61;6.65;;;;;;;4.68;72.42;99933.16;347758;116;1962943;-73
2021/01/04 05:23:09;;;;;;;15.06;7.32;;;;;;;4.65;72.55;99933.48;347718;114;1963006;-74
2021/01/04 05:24:34;;;;;;;14.04;7.25;;;;;;;4.66;72.55;99936.98;313921;114;2900005;-73
2021/01/04 05:25:52;;;;;;;14.76;7.43;;;;;;;4.68;72.56;99946.53;314446;114;2586949;-73
2021/01/04 05:27:08;;;;;;;14.41;7.58;;;;;;;4.71;72.36;99945.38;347917;114;1963036;-74
2021/01/04 05:28:21;;;;;;;13.99;7.49;;;;;;;4.71;72.45;99948.05;300522;114;2842965;-74
2021/01/04 05:29:40;;;;;;;13.44;7.04;;;;;;;4.69;72.59;99947.40;345682;116;1963057;-74
2021/01/04 05:31:07;;;;;;;11.56;6.67;;;;;;;4.74;72.36;99950.43;341286;116;1964089;-74
2021/01/04 05:32:36;;;;;;;13.10;6.53;;;;;;;4.77;72.22;99950.11;346502;115;1961998;-73
2021/01/04 05:33:45;;;;;;;15.08;6.94;;;;;;;4.67;72.54;99952.90;343205;116;1965357;-74
2021/01/04 05:35:00;;;;;;;14.68;6.95;;;;;;;4.70;72.53;99947.22;347973;114;1961910;-73
2021/01/04 05:36:43;;;;;;;13.51;7.97;;;;;;;4.67;72.78;99946.72;356204;112;1962018;-73
2021/01/04 05:37:58;;;;;;;12.61;6.61;;;;;;;4.71;72.69;99940.03;330297;112;2380909;-72
2021/01/04 05:39:11;;;;;;;14.61;7.51;;;;;;;4.69;72.62;99953.58;350068;112;1965028;-73
2021/01/04 05:40:44;;;;;;;14.27;7.64;;;;;;;4.71;72.55;99954.27;355069;112;1961978;-73
2021/01/04 05:42:06;;;;;;;;;;;;;;;4.76;72.31;99957.30;357718;112;1960915;-73
2021/01/04 05:43:35;;;;;;;17.13;7.56;;;;;;;4.74;72.44;99961.14;355430;112;1960963;-74
2021/01/04 05:45:11;;;;;;;13.01;6.60;;;;;;;4.80;72.10;99960.48;355962;112;1969030;-73